Time;durP1;ratioP1;P1;durP2;ratioP2;P2;SDS_P1;SDS_P2;PMS_P1;PMS_P2;Temp;Humidity;BMP_temperature;BMP_pressure;BME280_temperature;BME280_humidity;BME280_pressure;Samples;Min_cycle;Max_cycle;Signal;HPM_P1;HPM_P2
2024/03/02 00:01:12;;;;;;;0.83;0.83;;;22.50;1.00;;;;;;2611724;54;20157;-71
2024/03/02 00:03:38;;;;;;;0.80;0.80;;;22.40;1.00;;;;;;2612712;54;20448;-71
2024/03/02 00:06:04;;;;;;;0.80;0.80;;;22.40;1.00;;;;;;2610148;47;20974;-71
2024/03/02 00:08:30;;;;;;;1.00;1.00;;;22.40;1.00;;;;;;2612800;47;20540;-71
2024/03/02 00:11:02;;;;;;;1.00;1.00;;;22.40;1.00;;;;;;2612399;39;20467;-71
2024/03/02 00:13:30;;;;;;;2.37;2.27;;;22.40;1.00;;;;;;2612306;54;20406;-71
2024/03/02 00:15:57;;;;;;;0.80;0.80;;;22.40;1.00;;;;;;2610298;54;20421;-71
2024/03/02 00:18:30;;;;;;;1.70;1.60;;;22.30;1.00;;;;;;2608520;54;20428;-71
2024/03/02 00:20:57;;;;;;;0.90;0.90;;;22.30;1.00;;;;;;2611095;54;20396;-71
2024/03/02 00:23:24;;;;;;;0.87;0.87;;;22.30;1.00;;;;;;2612034;54;21383;-71
2024/03/02 00:25:53;;;;;;;0.90;0.90;;;22.30;1.00;;;;;;2611277;54;20471;-71
2024/03/02 00:28:24;;;;;;;0.80;0.80;;;22.30;1.00;;;;;;2612681;54;20402;-71
2024/03/02 00:30:59;;;;;;;0.80;0.80;;;22.30;1.00;;;;;;2612246;47;20436;-71
2024/03/02 00:33:43;;;;;;;0.90;0.90;;;22.30;1.00;;;;;;2611063;54;20398;-71
2024/03/02 00:36:10;;;;;;;0.90;0.90;;;22.30;1.00;;;;;;2610904;47;20460;-71
2024/03/02 00:38:49;;;;;;;0.90;0.90;;;22.30;1.00;;;;;;2610794;54;20428;-71
2024/03/02 00:41:22;;;;;;;1.17;1.17;;;22.30;1.00;;;;;;2611664;54;20397;-71
2024/03/02 00:43:51;;;;;;;0.93;0.93;;;22.30;1.00;;;;;;2611942;54;20461;-71
2024/03/02 00:46:20;;;;;;;0.90;0.90;;;22.20;1.00;;;;;;2610307;54;20416;-70
2024/03/02 00:48:58;;;;;;;0.90;0.90;;;22.30;1.00;;;;;;2612617;39;21055;-72
2024/03/02 00:51:27;;;;;;;0.90;0.90;;;22.30;1.00;;;;;;2612253;54;20435;-72
2024/03/02 00:53:56;;;;;;;0.80;0.80;;;22.20;1.00;;;;;;2612170;54;20458;-72
2024/03/02 00:56:22;;;;;;;0.90;0.90;;;22.30;1.00;;;;;;2611130;39;20808;-72
2024/03/02 00:58:49;;;;;;;0.90;0.90;;;22.30;1.00;;;;;;2611697;54;20423;-72
2024/03/02 01:01:16;;;;;;;0.70;0.70;;;22.20;1.00;;;;;;2611696;54;20397;-72
2024/03/02 01:03:42;;;;;;;0.90;0.90;;;22.30;1.00;;;;;;2611478;47;20428;-72
2024/03/02 01:06:07;;;;;;;0.80;0.80;;;22.20;1.00;;;;;;2611814;54;20468;-72
2024/03/02 01:08:35;;;;;;;0.90;0.90;;;22.20;1.00;;;;;;2612235;54;20409;-72
2024/03/02 01:11:01;;;;;;;0.80;0.80;;;22.20;1.00;;;;;;2610652;54;20185;-72
2024/03/02 01:13:27;;;;;;;1.40;1.30;;;22.20;1.00;;;;;;2612560;39;20848;-72
2024/03/02 01:15:53;;;;;;;0.90;0.90;;;22.20;1.00;;;;;;2610417;39;21316;-71
2024/03/02 01:18:19;;;;;;;3.17;1.57;;;22.20;1.00;;;;;;2612421;54;20521;-71
2024/03/02 01:20:45;;;;;;;1.00;1.00;;;22.20;1.00;;;;;;2608104;50;20420;-72
2024/03/02 01:23:11;;;;;;;1.00;1.00;;;22.20;1.00;;;;;;2611153;54;20271;-72
2024/03/02 01:25:37;;;;;;;1.00;1.00;;;22.20;1.00;;;;;;2610642;54;20404;-72
2024/03/02 01:28:03;;;;;;;0.90;0.90;;;22.20;1.00;;;;;;2609923;47;20454;-72
2024/03/02 01:30:29;;;;;;;0.90;0.90;;;22.20;1.00;;;;;;2612172;39;20535;-71
2024/03/02 01:32:54;;;;;;;0.90;0.90;;;22.20;1.00;;;;;;2611976;54;20454;-72
2024/03/02 01:35:20;;;;;;;0.93;0.93;;;22.20;1.00;;;;;;2611758;54;20274;-71
2024/03/02 01:37:45;;;;;;;0.90;0.90;;;22.20;1.00;;;;;;2610101;54;20177;-71
2024/03/02 01:40:12;;;;;;;0.90;0.90;;;22.20;1.00;;;;;;2611270;47;20171;-71
2024/03/02 01:42:38;;;;;;;1.00;1.00;;;22.20;1.00;;;;;;2611829;54;20692;-72
2024/03/02 01:45:08;;;;;;;0.90;0.90;;;22.20;1.00;;;;;;2609604;54;20413;-71
2024/03/02 01:47:35;;;;;;;1.00;1.00;;;22.20;1.00;;;;;;2611395;54;20448;-72
2024/03/02 01:50:00;;;;;;;0.90;0.90;;;22.20;1.00;;;;;;2611355;54;20518;-72
2024/03/02 01:52:27;;;;;;;1.40;1.30;;;22.20;1.00;;;;;;2611262;54;20424;-73
2024/03/02 01:54:53;;;;;;;0.90;0.90;;;22.20;1.00;;;;;;2611586;54;20166;-72
2024/03/02 01:57:19;;;;;;;0.97;0.97;;;22.20;1.00;;;;;;2611761;54;20440;-72
2024/03/02 01:59:47;;;;;;;0.80;0.80;;;22.20;1.00;;;;;;2611942;47;20441;-72
2024/03/02 02:02:14;;;;;;;0.90;0.90;;;22.20;1.00;;;;;;2608347;46;20509;-72
2024/03/02 02:04:39;;;;;;;0.93;0.93;;;22.20;1.00;;;;;;2609686;39;20805;-72
2024/03/02 02:07:06;;;;;;;0.90;0.90;;;22.20;1.00;;;;;;2609689;54;20525;-72
2024/03/02 02:09:32;;;;;;;1.00;1.00;;;22.10;1.00;;;;;;2609685;54;20178;-69
2024/03/02 02:11:58;;;;;;;0.97;0.97;;;22.10;1.00;;;;;;2609355;54;20423;-69
2024/03/02 02:14:24;;;;;;;1.00;1.00;;;22.10;1.00;;;;;;2609055;54;20164;-68
2024/03/02 02:16:50;;;;;;;0.90;0.90;;;22.10;1.00;;;;;;2610694;46;20533;-69
2024/03/02 02:19:15;;;;;;;1.00;1.00;;;22.10;1.00;;;;;;2607492;54;20178;-69
2024/03/02 02:21:44;;;;;;;1.00;1.00;;;22.10;1.00;;;;;;2608750;54;20168;-69
2024/03/02 02:24:11;;;;;;;1.10;1.10;;;22.10;1.00;;;;;;2609154;47;20159;-69
2024/03/02 02:26:36;;;;;;;0.90;0.90;;;22.10;1.00;;;;;;2608608;54;20977;-69
2024/03/02 02:29:02;;;;;;;0.90;0.90;;;22.10;1.00;;;;;;2609401;54;20428;-64
2024/03/02 02:31:40;;;;;;;0.97;0.97;;;22.10;1.00;;;;;;2609640;54;20166;-64
2024/03/02 02:34:06;;;;;;;0.90;0.90;;;22.10;1.00;;;;;;2609453;54;20179;-64
2024/03/02 02:36:36;;;;;;;1.00;1.00;;;22.20;1.00;;;;;;2607271;54;20536;-64
2024/03/02 02:39:03;;;;;;;1.00;1.00;;;22.20;1.00;;;;;;2610744;47;20415;-87
2024/03/02 02:41:30;;;;;;;2.07;1.87;;;22.10;1.00;;;;;;2610532;54;20395;-86
2024/03/02 02:43:56;;;;;;;0.90;0.90;;;22.20;1.00;;;;;;2610845;54;20420;-84
2024/03/02 02:46:22;;;;;;;0.90;0.90;;;22.10;1.00;;;;;;2609848;54;20458;-85
2024/03/02 02:48:48;;;;;;;0.90;0.90;;;22.10;1.00;;;;;;2610355;54;20419;-85
2024/03/02 02:51:13;;;;;;;0.90;0.90;;;22.10;1.00;;;;;;2609523;54;20143;-86
2024/03/02 02:53:40;;;;;;;0.90;0.90;;;22.10;1.00;;;;;;2610431;54;20169;-85
2024/03/02 02:56:06;;;;;;;0.70;0.70;;;22.10;1.00;;;;;;2611798;39;20678;-87
2024/03/02 02:58:32;;;;;;;0.90;0.90;;;22.10;1.00;;;;;;2610579;39;20902;-85
2024/03/02 03:00:58;;;;;;;0.90;0.90;;;22.10;1.00;;;;;;2610539;54;20416;-85
2024/03/02 03:03:24;;;;;;;0.80;0.80;;;22.10;1.00;;;;;;2612917;54;20170;-85
2024/03/02 03:05:49;;;;;;;0.80;0.80;;;22.10;1.00;;;;;;2613830;54;20278;-86
2024/03/02 03:08:18;;;;;;;0.90;0.90;;;22.10;1.00;;;;;;2614233;54;20200;-85
2024/03/02 03:10:44;;;;;;;0.80;0.80;;;22.10;1.00;;;;;;2612917;39;20536;-85
2024/03/02 03:13:10;;;;;;;0.90;0.90;;;22.10;1.00;;;;;;2613662;54;20420;-84
2024/03/02 03:15:38;;;;;;;0.90;0.90;;;22.10;1.00;;;;;;2612070;54;20389;-86
2024/03/02 03:18:04;;;;;;;0.93;0.93;;;22.10;1.00;;;;;;2610800;54;20174;-73
2024/03/02 03:20:31;;;;;;;0.80;0.80;;;22.10;1.00;;;;;;2608196;53;22170;-65
2024/03/02 03:23:00;;;;;;;0.80;0.80;;;22.10;1.00;;;;;;2608595;47;20463;-63
2024/03/02 03:25:26;;;;;;;0.80;0.80;;;22.10;1.00;;;;;;2609001;39;21399;-64
2024/03/02 03:27:52;;;;;;;1.00;1.00;;;22.10;1.00;;;;;;2609005;47;20434;-63
2024/03/02 03:30:18;;;;;;;0.90;0.90;;;22.10;1.00;;;;;;2609062;54;20168;-63
2024/03/02 03:32:44;;;;;;;2.63;2.43;;;22.10;1.00;;;;;;2608258;54;20929;-64
2024/03/02 03:35:09;;;;;;;0.90;0.90;;;22.10;1.00;;;;;;2608109;54;20438;-63
2024/03/02 03:37:36;;;;;;;1.00;1.00;;;22.10;1.00;;;;;;2608901;47;20246;-64
2024/03/02 03:40:09;;;;;;;1.00;1.00;;;22.10;1.00;;;;;;2608006;54;20181;-64
2024/03/02 03:42:38;;;;;;;0.90;0.90;;;22.00;1.00;;;;;;2609359;39;20941;-64
2024/03/02 03:45:05;;;;;;;0.90;0.90;;;22.10;1.00;;;;;;2608567;54;20389;-64
2024/03/02 03:47:34;;;;;;;0.90;0.90;;;22.00;1.00;;;;;;2609378;54;20432;-64
2024/03/02 03:50:00;;;;;;;0.97;0.97;;;22.00;1.00;;;;;;2609691;46;20416;-87
2024/03/02 03:52:25;;;;;;;1.00;1.00;;;22.00;1.00;;;;;;2610495;54;20434;-85
2024/03/02 03:54:51;;;;;;;0.90;0.90;;;22.00;1.00;;;;;;2609115;54;20183;-86
2024/03/02 03:57:17;;;;;;;0.90;0.90;;;22.00;1.00;;;;;;2610764;54;20159;-86
2024/03/02 03:59:44;;;;;;;0.90;0.90;;;22.00;1.00;;;;;;2610245;47;20178;-85
2024/03/02 04:02:11;;;;;;;1.00;1.00;;;22.00;1.00;;;;;;2610118;54;20176;-87
2024/03/02 04:04:37;;;;;;;1.00;1.00;;;22.00;1.00;;;;;;2611368;47;20587;-87
2024/03/02 04:07:03;;;;;;;0.90;0.90;;;22.00;1.00;;;;;;2610596;54;20426;-87
2024/03/02 04:09:28;;;;;;;0.80;0.80;;;22.00;1.00;;;;;;2609908;54;20158;-87
2024/03/02 04:11:54;;;;;;;0.90;0.90;;;22.00;1.00;;;;;;2611002;54;20187;-86
2024/03/02 04:14:20;;;;;;;0.90;0.90;;;22.00;1.00;;;;;;2610252;54;20166;-87
2024/03/02 04:16:45;;;;;;;0.90;0.90;;;22.00;1.00;;;;;;2612209;54;20147;-87
2024/03/02 04:19:11;;;;;;;1.00;1.00;;;22.00;1.00;;;;;;2613270;54;20159;-88
2024/03/02 04:22:22;;;;;;;1.00;1.00;;;22.00;1.00;;;;;;2613905;54;20159;-86
2024/03/02 04:24:48;;;;;;;1.00;1.00;;;22.00;1.00;;;;;;2612243;54;20163;-88
2024/03/02 04:27:13;;;;;;;0.90;0.90;;;22.00;1.00;;;;;;2614649;54;20398;-87
2024/03/02 04:29:39;;;;;;;0.90;0.90;;;22.00;1.00;;;;;;2611791;54;20172;-66
2024/03/02 04:32:05;;;;;;;0.80;0.80;;;22.00;1.00;;;;;;2610882;39;20751;-67
2024/03/02 04:34:31;;;;;;;1.00;1.00;;;22.00;1.00;;;;;;2606195;54;20208;-66
2024/03/02 04:36:56;;;;;;;0.90;0.90;;;21.90;1.00;;;;;;2608650;54;20464;-67
2024/03/02 04:39:22;;;;;;;1.00;1.00;;;21.90;1.00;;;;;;2609773;54;20169;-67
2024/03/02 04:41:48;;;;;;;1.00;1.00;;;21.90;1.00;;;;;;2609390;54;20774;-67
2024/03/02 04:44:13;;;;;;;0.90;0.90;;;21.90;1.00;;;;;;2608432;54;20174;-67
2024/03/02 04:46:39;;;;;;;1.10;1.10;;;21.90;1.00;;;;;;2607898;54;20147;-67
2024/03/02 04:49:04;;;;;;;0.90;0.90;;;21.90;1.00;;;;;;2609485;47;20215;-66
2024/03/02 04:51:30;;;;;;;1.00;1.00;;;21.90;1.00;;;;;;2606763;54;20165;-66
2024/03/02 04:53:56;;;;;;;1.00;1.00;;;21.90;1.00;;;;;;2608848;54;20158;-66
2024/03/02 04:58:56;;;;;;;0.90;0.90;;;21.90;1.00;;;;;;2609368;54;20264;-70
2024/03/02 05:01:22;;;;;;;0.90;0.90;;;21.90;1.00;;;;;;2608468;54;20411;-71
2024/03/02 05:03:48;;;;;;;0.90;0.90;;;21.90;1.00;;;;;;2608248;54;20161;-71
2024/03/02 05:06:14;;;;;;;1.00;1.00;;;21.90;1.00;;;;;;2609203;54;20154;-70
2024/03/02 05:08:39;;;;;;;1.10;1.10;;;22.00;1.00;;;;;;2608141;54;20184;-69
2024/03/02 05:13:49;;;;;;;1.00;1.00;;;22.00;1.00;;;;;;2608222;54;20184;-69
2024/03/02 05:16:15;;;;;;;1.53;1.47;;;22.00;1.00;;;;;;2607820;54;20570;-70
2024/03/02 05:18:40;;;;;;;1.00;1.00;;;22.00;1.00;;;;;;2608974;54;20176;-70
2024/03/02 05:21:06;;;;;;;0.97;0.97;;;22.00;1.00;;;;;;2608329;54;20170;-68
2024/03/02 05:23:32;;;;;;;1.10;1.10;;;22.00;1.00;;;;;;2608038;54;20182;-69
2024/03/02 05:25:57;;;;;;;1.20;1.20;;;22.00;1.00;;;;;;2607747;54;20156;-70
2024/03/02 05:28:23;;;;;;;1.10;1.10;;;22.00;1.00;;;;;;2607328;51;20255;-70
2024/03/02 05:30:49;;;;;;;0.87;0.87;;;22.00;1.00;;;;;;2607585;47;20191;-70
2024/03/02 05:33:16;;;;;;;1.00;1.00;;;22.00;1.00;;;;;;2608257;54;20280;-70
2024/03/02 05:35:43;;;;;;;0.87;0.87;;;22.00;1.00;;;;;;2609835;54;20575;-70
2024/03/02 05:38:09;;;;;;;1.03;1.03;;;22.00;1.00;;;;;;2609202;47;20423;-64
2024/03/02 05:40:34;;;;;;;0.90;0.90;;;22.00;1.00;;;;;;2608579;39;20893;-74
2024/03/02 05:43:00;;;;;;;0.90;0.90;;;22.00;1.00;;;;;;2607566;54;20278;-74
2024/03/02 05:45:26;;;;;;;1.00;1.00;;;22.00;1.00;;;;;;2608944;54;20163;-73
2024/03/02 05:47:51;;;;;;;1.10;1.10;;;22.00;1.00;;;;;;2609281;47;20759;-74
2024/03/02 05:50:19;;;;;;;1.00;1.00;;;22.00;1.00;;;;;;2607548;54;20167;-73
2024/03/02 05:52:45;;;;;;;1.10;1.10;;;22.00;1.00;;;;;;2608634;54;20161;-73
2024/03/02 05:55:10;;;;;;;1.10;1.10;;;22.00;1.00;;;;;;2608071;54;20417;-73
2024/03/02 06:00:22;;;;;;;1.00;1.00;;;22.00;1.00;;;;;;2608093;54;20187;-73
2024/03/02 06:02:47;;;;;;;1.00;1.00;;;22.10;1.00;;;;;;2608181;54;20407;-73
2024/03/02 06:05:14;;;;;;;1.00;1.00;;;22.00;1.00;;;;;;2608951;39;20927;-73
2024/03/02 06:08:13;;;;;;;1.10;1.10;;;22.10;1.00;;;;;;2608739;47;20349;-73
2024/03/02 06:10:40;;;;;;;1.00;1.00;;;22.10;1.00;;;;;;2608560;54;21012;-74
2024/03/02 06:13:05;;;;;;;1.53;1.47;;;22.10;1.00;;;;;;2609555;54;20408;-73
2024/03/02 06:15:31;;;;;;;0.93;0.93;;;22.10;1.00;;;;;;2607693;54;20448;-74
2024/03/02 06:17:57;;;;;;;1.10;1.10;;;22.10;1.00;;;;;;2606270;54;20166;-74
2024/03/02 06:20:22;;;;;;;1.00;1.00;;;22.10;1.00;;;;;;2607227;54;20174;-72
2024/03/02 06:22:48;;;;;;;1.10;1.10;;;22.10;1.00;;;;;;2608189;54;20189;-72
2024/03/02 06:25:14;;;;;;;1.00;1.00;;;22.10;1.00;;;;;;2609017;54;20180;-73
2024/03/02 06:27:40;;;;;;;1.00;1.00;;;22.10;1.00;;;;;;2607217;54;20148;-73
2024/03/02 06:30:06;;;;;;;0.93;0.93;;;22.10;1.00;;;;;;2610155;54;20683;-73
2024/03/02 06:32:32;;;;;;;0.87;0.87;;;22.10;1.00;;;;;;2609828;47;20170;-72
2024/03/02 06:34:57;;;;;;;0.90;0.90;;;22.20;1.00;;;;;;2607750;54;20982;-73
2024/03/02 06:37:23;;;;;;;0.90;0.90;;;22.20;1.00;;;;;;2610852;47;20170;-73
2024/03/02 06:39:48;;;;;;;0.80;0.80;;;22.20;1.00;;;;;;2609282;54;20188;-71
2024/03/02 06:42:14;;;;;;;0.90;0.90;;;22.20;1.00;;;;;;2609748;54;20668;-72
2024/03/02 06:44:40;;;;;;;0.90;0.90;;;22.20;1.00;;;;;;2608422;54;20278;-73
2024/03/02 06:47:05;;;;;;;0.80;0.80;;;22.20;1.00;;;;;;2608942;54;20171;-73
2024/03/02 06:49:31;;;;;;;0.80;0.80;;;22.20;1.00;;;;;;2606576;54;20171;-65
2024/03/02 06:51:57;;;;;;;0.80;0.80;;;22.20;1.00;;;;;;2608229;54;20148;-65
2024/03/02 06:54:22;;;;;;;2.80;2.70;;;22.30;1.00;;;;;;2607803;54;20196;-64
2024/03/02 06:56:48;;;;;;;2.60;2.50;;;22.40;1.00;;;;;;2609058;54;20206;-68
2024/03/02 06:59:14;;;;;;;1.00;1.00;;;22.80;1.00;;;;;;2605656;54;20395;-68
2024/03/02 07:01:39;;;;;;;0.90;0.90;;;22.80;1.00;;;;;;2610886;39;21197;-69
2024/03/02 07:04:06;;;;;;;0.90;0.90;;;22.70;1.00;;;;;;2609530;54;20149;-68
2024/03/02 07:06:32;;;;;;;0.90;0.90;;;22.60;1.00;;;;;;2611322;54;20158;-69
2024/03/02 07:08:57;;;;;;;0.80;0.80;;;22.50;1.00;;;;;;2609874;54;20532;-70
2024/03/02 07:11:23;;;;;;;1.20;1.20;;;22.50;1.00;;;;;;2610705;54;20155;-69
2024/03/02 07:13:49;;;;;;;1.20;1.20;;;22.50;1.00;;;;;;2609594;54;20155;-69
2024/03/02 07:16:32;;;;;;;1.00;1.00;;;22.50;1.00;;;;;;2611842;54;20152;-69
2024/03/02 07:18:58;;;;;;;0.90;0.90;;;22.50;1.00;;;;;;2610297;54;21572;-65
2024/03/02 07:21:24;;;;;;;1.07;1.07;;;22.50;1.00;;;;;;2610329;54;20438;-65
2024/03/02 07:23:50;;;;;;;1.00;1.00;;;22.80;1.00;;;;;;2610867;54;20422;-64
2024/03/02 07:26:18;;;;;;;1.40;1.30;;;23.00;1.00;;;;;;2612669;39;20817;-65
2024/03/02 07:28:45;;;;;;;1.33;1.30;;;23.10;1.00;;;;;;2610905;54;20456;-68
2024/03/02 07:31:11;;;;;;;1.20;1.20;;;23.20;1.00;;;;;;2611083;54;20412;-65
2024/03/02 07:33:37;;;;;;;1.70;1.60;;;23.40;1.00;;;;;;2610392;54;20540;-69
2024/03/02 07:36:03;;;;;;;1.40;1.30;;;23.20;1.00;;;;;;2608571;54;20201;-67
2024/03/02 07:38:29;;;;;;;1.70;1.60;;;23.00;1.00;;;;;;2610805;54;20165;-67
2024/03/02 07:40:55;;;;;;;1.40;1.40;;;22.80;1.00;;;;;;2610917;54;20410;-67
2024/03/02 07:43:21;;;;;;;1.40;1.40;;;22.80;1.00;;;;;;2610082;47;20488;-67
2024/03/02 07:45:48;;;;;;;2.13;2.03;;;22.70;1.00;;;;;;2611071;54;20413;-68
2024/03/02 07:48:14;;;;;;;0.80;0.80;;;22.70;1.00;;;;;;2608556;54;21615;-65
2024/03/02 07:50:39;;;;;;;0.90;0.90;;;22.80;1.00;;;;;;2612175;54;20934;-66
2024/03/02 07:53:06;;;;;;;1.20;1.20;;;22.80;1.00;;;;;;2609570;54;20410;-66
2024/03/02 07:55:31;;;;;;;1.60;1.50;;;23.00;1.00;;;;;;2611730;54;20167;-70
2024/03/02 07:57:57;;;;;;;1.60;1.50;;;23.20;1.00;;;;;;2609668;54;20439;-68
2024/03/02 08:00:23;;;;;;;2.00;1.90;;;23.40;1.00;;;;;;2610272;47;20169;-70
2024/03/02 08:02:50;;;;;;;1.70;1.60;;;23.60;1.00;;;;;;2608430;54;21195;-66
2024/03/02 08:05:18;;;;;;;1.00;1.00;;;23.70;1.00;;;;;;2610777;54;20417;-65
2024/03/02 08:07:45;;;;;;;1.03;1.03;;;23.50;1.00;;;;;;2611190;47;20435;-65
2024/03/02 08:10:11;;;;;;;1.00;1.00;;;23.40;1.00;;;;;;2611459;39;21057;-65
2024/03/02 08:12:36;;;;;;;1.00;1.00;;;23.20;1.00;;;;;;2610736;54;20420;-67
2024/03/02 08:15:02;;;;;;;0.63;0.63;;;23.20;1.00;;;;;;2608693;47;21045;-67
2024/03/02 08:17:28;;;;;;;0.60;0.50;;;23.30;1.00;;;;;;2611658;54;21047;-67
2024/03/02 08:19:54;;;;;;;0.60;0.50;;;23.20;1.00;;;;;;2611376;54;20503;-66
2024/03/02 08:22:20;;;;;;;0.60;0.40;;;23.20;1.00;;;;;;2608962;47;20322;-68
2024/03/02 08:24:46;;;;;;;0.60;0.40;;;23.20;1.00;;;;;;2609151;54;20425;-68
2024/03/02 08:27:12;;;;;;;0.60;0.40;;;23.10;1.00;;;;;;2608440;54;20258;-68
2024/03/02 08:29:38;;;;;;;0.60;0.40;;;23.00;1.00;;;;;;2609186;54;20187;-70
2024/03/02 08:32:04;;;;;;;0.60;0.37;;;23.00;1.00;;;;;;2609821;39;20834;-70
2024/03/02 08:34:30;;;;;;;0.60;0.40;;;22.90;1.00;;;;;;2608662;54;21085;-71
2024/03/02 08:36:56;;;;;;;0.60;0.40;;;22.80;1.00;;;;;;2610348;54;20447;-72
2024/03/02 08:39:22;;;;;;;0.60;0.40;;;22.80;1.00;;;;;;2608977;54;20190;-71
2024/03/02 08:41:47;;;;;;;0.60;0.40;;;22.70;1.00;;;;;;2609017;54;20166;-71
2024/03/02 08:44:14;;;;;;;0.60;0.30;;;22.80;1.00;;;;;;2609586;39;20577;-71
2024/03/02 08:46:40;;;;;;;0.60;0.40;;;22.80;1.00;;;;;;2610017;54;20189;-72
2024/03/02 08:49:06;;;;;;;0.60;0.40;;;22.80;1.00;;;;;;2611024;54;20454;-72
2024/03/02 08:51:32;;;;;;;0.60;0.40;;;22.80;1.00;;;;;;2609066;54;20163;-72
2024/03/02 08:53:58;;;;;;;0.60;0.40;;;22.80;1.00;;;;;;2610099;54;20398;-71
2024/03/02 08:56:25;;;;;;;0.60;0.30;;;22.80;1.00;;;;;;2610546;54;20205;-71
2024/03/02 08:58:51;;;;;;;0.60;0.40;;;22.80;1.00;;;;;;2609002;54;20497;-71
2024/03/02 09:01:19;;;;;;;0.60;0.40;;;22.90;1.00;;;;;;2608615;54;20420;-71
2024/03/02 09:03:45;;;;;;;0.60;0.40;;;22.90;1.00;;;;;;2609092;54;20422;-72
2024/03/02 09:06:13;;;;;;;0.60;0.40;;;23.00;1.00;;;;;;2608401;39;20856;-71
2024/03/02 09:08:39;;;;;;;1.70;1.60;;;23.00;1.00;;;;;;2609555;54;20436;-69
2024/03/02 09:11:09;;;;;;;0.60;0.50;;;23.00;1.00;;;;;;2608879;39;20844;-69
2024/03/02 09:13:35;;;;;;;1.30;1.20;;;23.00;1.00;;;;;;2608412;54;20150;-69
2024/03/02 09:16:01;;;;;;;0.60;0.40;;;23.00;1.00;;;;;;2609141;54;20413;-68
2024/03/02 09:18:27;;;;;;;0.60;0.40;;;23.10;1.00;;;;;;2608982;54;20415;-68
2024/03/02 09:20:52;;;;;;;0.60;0.40;;;23.10;1.00;;;;;;2608337;54;20169;-69
2024/03/02 09:23:18;;;;;;;0.60;0.40;;;23.20;1.00;;;;;;2608395;47;20238;-69
2024/03/02 09:25:44;;;;;;;0.77;0.77;;;23.30;1.00;;;;;;2608686;39;20570;-69
2024/03/02 09:28:10;;;;;;;0.60;0.40;;;23.30;1.00;;;;;;2610797;39;20653;-68
2024/03/02 09:30:36;;;;;;;0.60;0.40;;;23.40;1.00;;;;;;2611185;54;20156;-69
2024/03/02 09:33:01;;;;;;;0.60;0.40;;;23.40;1.00;;;;;;2611727;54;20410;-69
2024/03/02 09:35:27;;;;;;;0.60;0.40;;;23.40;1.00;;;;;;2610696;54;20194;-70
2024/03/02 09:37:53;;;;;;;0.60;0.40;;;23.40;1.00;;;;;;2611581;54;20163;-70
2024/03/02 09:40:22;;;;;;;0.60;0.40;;;23.50;1.00;;;;;;2611995;47;20212;-64
2024/03/02 09:42:52;;;;;;;0.60;0.40;;;23.40;1.00;;;;;;2610792;54;20159;-64
2024/03/02 09:45:23;;;;;;;0.60;0.40;;;23.50;1.00;;;;;;2608713;54;20450;-64
2024/03/02 09:47:49;;;;;;;0.60;0.30;;;23.50;1.00;;;;;;2607918;54;20401;-64
2024/03/02 09:50:15;;;;;;;0.60;0.40;;;23.50;1.00;;;;;;2606396;54;20569;-64
2024/03/02 09:52:43;;;;;;;0.60;0.40;;;23.60;1.00;;;;;;2606981;54;20546;-65
2024/03/02 09:55:09;;;;;;;1.20;1.20;;;23.60;1.00;;;;;;2610576;54;20389;-68
2024/03/02 09:57:35;;;;;;;0.80;0.80;;;23.60;1.00;;;;;;2609362;54;20426;-70
2024/03/02 10:00:01;;;;;;;0.83;0.83;;;23.80;1.00;;;;;;2608565;47;20452;-69
2024/03/02 10:02:27;;;;;;;0.80;0.80;;;24.00;1.00;;;;;;2606135;54;20644;-68
2024/03/02 10:04:53;;;;;;;0.90;0.90;;;24.20;1.00;;;;;;2606845;54;20240;-75
2024/03/02 10:07:19;;;;;;;0.80;0.80;;;24.30;1.00;;;;;;2607853;54;20528;-73
2024/03/02 10:09:49;;;;;;;0.90;0.90;;;24.10;1.00;;;;;;2607927;54;20194;-73
2024/03/02 10:12:18;;;;;;;0.90;0.90;;;24.00;1.00;;;;;;2608999;39;21014;-76
2024/03/02 10:14:44;;;;;;;0.90;0.90;;;23.80;1.00;;;;;;2607010;54;20445;-76
2024/03/02 10:17:12;;;;;;;0.70;0.60;;;23.70;1.00;;;;;;2608020;54;20510;-65
2024/03/02 10:19:38;;;;;;;0.70;0.70;;;22.90;1.00;;;;;;2608174;47;20448;-65
2024/03/02 10:22:09;;;;;;;0.70;0.60;;;22.30;1.00;;;;;;2608630;39;20707;-65
2024/03/02 10:24:41;;;;;;;0.70;0.60;;;22.60;1.00;;;;;;2608484;54;20397;-66
2024/03/02 10:27:18;;;;;;;0.70;0.50;;;22.80;1.00;;;;;;2609323;39;20914;-64
2024/03/02 10:29:47;;;;;;;0.60;0.60;;;23.00;1.00;;;;;;2608740;39;20811;-64
2024/03/02 10:32:12;;;;;;;0.60;0.50;;;23.40;1.00;;;;;;2608106;54;21044;-65
2024/03/02 10:34:42;;;;;;;0.60;0.50;;;23.50;1.00;;;;;;2607811;46;20421;-64
2024/03/02 10:37:08;;;;;;;0.60;0.50;;;23.70;1.00;;;;;;2607568;54;20712;-64
2024/03/02 10:39:39;;;;;;;0.60;0.43;;;23.90;1.00;;;;;;2608192;54;20400;-67
2024/03/02 10:42:06;;;;;;;0.60;0.50;;;24.00;1.00;;;;;;2609847;54;20428;-70
2024/03/02 10:44:33;;;;;;;0.60;0.40;;;24.20;1.00;;;;;;2609425;39;21261;-69
2024/03/02 10:47:03;;;;;;;0.60;0.60;;;24.20;1.00;;;;;;2610021;54;20410;-72
2024/03/02 10:49:31;;;;;;;0.60;0.60;;;24.10;1.00;;;;;;2609770;39;20982;-78
2024/03/02 10:52:00;;;;;;;0.60;0.60;;;23.50;1.00;;;;;;2610337;54;20500;-76
2024/03/02 10:54:26;;;;;;;0.70;0.60;;;23.20;1.00;;;;;;2608673;54;20512;-77
2024/03/02 10:56:57;;;;;;;0.70;0.60;;;22.80;1.00;;;;;;2610104;39;20836;-77
2024/03/02 10:59:38;;;;;;;0.70;0.60;;;22.50;1.00;;;;;;2609303;54;20424;-77
2024/03/02 11:02:06;;;;;;;0.70;0.60;;;22.40;1.00;;;;;;2609145;47;20433;-77
2024/03/02 11:04:34;;;;;;;0.70;0.60;;;22.50;1.00;;;;;;2611278;39;20775;-77
2024/03/02 11:07:13;;;;;;;0.70;0.60;;;22.40;1.00;;;;;;2609160;54;20521;-77
2024/03/02 11:09:54;;;;;;;0.70;0.60;;;22.30;1.00;;;;;;2608171;54;20412;-77
2024/03/02 11:12:27;;;;;;;0.70;0.60;;;22.40;1.00;;;;;;2609410;39;20859;-77
2024/03/02 11:14:55;;;;;;;0.70;0.60;;;22.30;1.00;;;;;;2608411;54;20391;-78
2024/03/02 11:17:21;;;;;;;0.70;0.60;;;22.40;1.00;;;;;;2608513;54;20532;-77
2024/03/02 11:19:47;;;;;;;0.70;0.60;;;22.50;1.00;;;;;;2609955;39;20811;-76
2024/03/02 11:22:15;;;;;;;0.70;0.60;;;22.50;1.00;;;;;;2610415;54;20441;-78
2024/03/02 11:24:52;;;;;;;0.70;0.60;;;22.60;1.00;;;;;;2609798;54;20424;-78
2024/03/02 11:27:47;;;;;;;0.70;0.60;;;22.60;1.00;;;;;;2609100;54;20471;-77
2024/03/02 11:30:32;;;;;;;1.10;1.10;;;22.40;1.00;;;;;;2608194;54;20426;-76
2024/03/02 11:32:58;;;;;;;0.70;0.60;;;22.30;1.00;;;;;;2608947;54;20399;-77
2024/03/02 11:35:31;;;;;;;0.70;0.60;;;22.40;1.00;;;;;;2607401;39;22085;-77
2024/03/02 11:37:58;;;;;;;1.43;1.33;;;22.30;1.00;;;;;;2608295;54;20410;-76
2024/03/02 11:40:30;;;;;;;0.70;0.60;;;22.40;1.00;;;;;;2609221;54;20415;-77
2024/03/02 11:43:06;;;;;;;0.70;0.60;;;22.60;1.00;;;;;;2608765;54;20396;-77
2024/03/02 11:45:33;;;;;;;0.70;0.60;;;22.20;1.00;;;;;;2608261;47;20426;-77
2024/03/02 11:47:59;;;;;;;0.60;0.57;;;21.90;1.00;;;;;;2608689;54;20407;-77
2024/03/02 11:50:35;;;;;;;0.70;0.60;;;22.00;1.00;;;;;;2606336;54;20441;-64
2024/03/02 11:53:01;;;;;;;0.70;0.60;;;22.00;1.00;;;;;;2608824;54;20407;-64
2024/03/02 11:55:26;;;;;;;0.70;0.60;;;22.00;1.00;;;;;;2606963;54;20410;-64
2024/03/02 11:57:53;;;;;;;0.70;0.50;;;22.00;1.00;;;;;;2608090;54;20433;-64
2024/03/02 12:00:20;;;;;;;0.70;0.50;;;21.70;1.00;;;;;;2608737;54;20247;-73
2024/03/02 12:03:00;;;;;;;0.70;0.60;;;21.90;1.00;;;;;;2608803;47;20452;-73
2024/03/02 12:05:27;;;;;;;0.70;0.50;;;21.90;1.00;;;;;;2609676;46;20410;-73
2024/03/02 12:08:04;;;;;;;0.70;0.60;;;22.10;1.00;;;;;;2608747;54;20426;-73
2024/03/02 12:10:31;;;;;;;0.70;0.50;;;22.10;1.00;;;;;;2610904;54;20407;-73
2024/03/02 12:12:57;;;;;;;0.70;0.60;;;22.00;1.00;;;;;;2609676;47;20501;-73
2024/03/02 12:15:40;;;;;;;0.70;0.60;;;21.80;1.00;;;;;;2609877;51;20425;-73
2024/03/02 12:18:06;;;;;;;0.70;0.60;;;21.70;1.00;;;;;;2610754;54;20179;-72
2024/03/02 12:20:33;;;;;;;0.70;0.50;;;21.40;1.00;;;;;;2610193;54;20430;-72
2024/03/02 12:23:02;;;;;;;0.70;0.60;;;21.10;1.00;;;;;;2610402;51;20157;-73
2024/03/02 12:25:29;;;;;;;0.70;0.60;;;21.00;1.00;;;;;;2609977;54;20429;-72
2024/03/02 12:27:57;;;;;;;0.70;0.60;;;21.10;1.00;;;;;;2608856;54;20421;-73
2024/03/02 12:30:24;;;;;;;0.70;0.60;;;21.30;1.00;;;;;;2609072;54;20411;-73
2024/03/02 12:32:51;;;;;;;0.70;0.50;;;21.40;1.00;;;;;;2609348;54;20418;-73
2024/03/02 12:35:18;;;;;;;0.70;0.50;;;21.50;1.00;;;;;;2608990;54;20522;-72
2024/03/02 12:37:45;;;;;;;0.70;0.50;;;21.40;1.00;;;;;;2608740;54;20427;-73
2024/03/02 12:40:12;;;;;;;0.70;0.60;;;21.10;1.00;;;;;;2609295;31;20975;-73
2024/03/02 12:42:39;;;;;;;0.70;0.70;;;21.10;1.00;;;;;;2608335;54;20423;-72
2024/03/02 12:45:06;;;;;;;0.70;0.60;;;21.20;1.00;;;;;;2608607;54;20420;-73
2024/03/02 12:47:33;;;;;;;0.70;0.60;;;21.20;1.00;;;;;;2608071;47;20419;-72
2024/03/02 12:49:59;;;;;;;0.70;0.60;;;20.80;1.00;;;;;;2608924;54;20402;-73
2024/03/02 12:52:25;;;;;;;0.70;0.63;;;20.80;1.00;;;;;;2608973;54;21257;-73
2024/03/02 12:54:52;;;;;;;0.87;0.87;;;20.90;1.00;;;;;;2607247;54;20576;-76
2024/03/02 12:57:18;;;;;;;0.70;0.60;;;20.80;1.00;;;;;;2609209;54;20443;-73
2024/03/02 12:59:47;;;;;;;1.73;1.63;;;20.80;1.00;;;;;;2611379;54;20441;-73
2024/03/02 13:02:20;;;;;;;1.20;1.10;;;20.90;1.00;;;;;;2608390;54;20436;-71
2024/03/02 13:04:54;;;;;;;1.50;1.40;;;20.90;1.00;;;;;;2608590;47;20489;-70
2024/03/02 13:07:22;;;;;;;1.10;1.10;;;20.70;1.00;;;;;;2608771;39;20779;-67